sensor_id;sensor_type;location;lat;lon;timestamp;pressure;altitude;pressure_sealevel;temperature;humidity
30897;BME280;64229;52.246;21.054;2023-04-01T00:02:05;98605.38;;;9.30;100.00
30897;BME280;64229;52.246;21.054;2023-04-01T00:04:31;98604.47;;;9.35;100.00
30897;BME280;64229;52.246;21.054;2023-04-01T00:06:57;98596.59;;;9.30;100.00
30897;BME280;64229;52.246;21.054;2023-04-01T00:09:23;98591.16;;;9.21;100.00
30897;BME280;64229;52.246;21.054;2023-04-01T00:11:48;98596.78;;;9.19;100.00
30897;BME280;64229;52.246;21.054;2023-04-01T00:14:14;98598.34;;;9.34;100.00
30897;BME280;64229;52.246;21.054;2023-04-01T00:16:39;98590.66;;;9.33;100.00
30897;BME280;64229;52.246;21.054;2023-04-01T00:19:05;98593.72;;;9.40;100.00
30897;BME280;64229;52.246;21.054;2023-04-01T00:21:31;98571.94;;;9.38;100.00
30897;BME280;64229;52.246;21.054;2023-04-01T00:23:56;98580.50;;;9.48;100.00
30897;BME280;64229;52.246;21.054;2023-04-01T00:26:22;98576.75;;;9.49;100.00
30897;BME280;64229;52.246;21.054;2023-04-01T00:28:48;98576.84;;;9.44;100.00
30897;BME280;64229;52.246;21.054;2023-04-01T00:31:14;98582.16;;;9.44;100.00
30897;BME280;64229;52.246;21.054;2023-04-01T00:33:40;98578.16;;;9.47;100.00
30897;BME280;64229;52.246;21.054;2023-04-01T00:36:17;98572.22;;;9.50;100.00
30897;BME280;64229;52.246;21.054;2023-04-01T00:38:43;98574.56;;;9.51;100.00
30897;BME280;64229;52.246;21.054;2023-04-01T00:41:12;98567.84;;;9.54;100.00
30897;BME280;64229;52.246;21.054;2023-04-01T00:43:41;98581.88;;;9.60;100.00
30897;BME280;64229;52.246;21.054;2023-04-01T00:46:07;98573.25;;;9.63;100.00
30897;BME280;64229;52.246;21.054;2023-04-01T00:48:34;98571.00;;;9.56;100.00
30897;BME280;64229;52.246;21.054;2023-04-01T00:51:06;98570.91;;;9.61;100.00
30897;BME280;64229;52.246;21.054;2023-04-01T00:53:34;98553.88;;;9.48;100.00
30897;BME280;64229;52.246;21.054;2023-04-01T00:56:09;98573.19;;;9.54;100.00
30897;BME280;64229;52.246;21.054;2023-04-01T00:58:38;98580.88;;;9.55;100.00
30897;BME280;64229;52.246;21.054;2023-04-01T01:01:06;98576.31;;;9.56;100.00
30897;BME280;64229;52.246;21.054;2023-04-01T01:03:33;98577.41;;;9.55;100.00
30897;BME280;64229;52.246;21.054;2023-04-01T01:08:57;98565.81;;;9.37;100.00
30897;BME280;64229;52.246;21.054;2023-04-01T01:11:35;98581.38;;;9.44;100.00
30897;BME280;64229;52.246;21.054;2023-04-01T01:14:10;98568.75;;;9.36;100.00
30897;BME280;64229;52.246;21.054;2023-04-01T01:16:58;98575.75;;;9.59;100.00
30897;BME280;64229;52.246;21.054;2023-04-01T01:25:36;98565.28;;;9.63;100.00
30897;BME280;64229;52.246;21.054;2023-04-01T01:31:30;98562.72;;;9.57;100.00
30897;BME280;64229;52.246;21.054;2023-04-01T01:36:42;98562.94;;;9.83;100.00
30897;BME280;64229;52.246;21.054;2023-04-01T01:39:12;98571.13;;;9.87;100.00
30897;BME280;64229;52.246;21.054;2023-04-01T01:41:41;98581.03;;;9.73;100.00
30897;BME280;64229;52.246;21.054;2023-04-01T01:44:11;98567.28;;;9.57;100.00
30897;BME280;64229;52.246;21.054;2023-04-01T01:46:38;98568.28;;;9.47;100.00
30897;BME280;64229;52.246;21.054;2023-04-01T01:49:06;98579.81;;;9.43;100.00
30897;BME280;64229;52.246;21.054;2023-04-01T01:51:32;98580.50;;;9.35;100.00
30897;BME280;64229;52.246;21.054;2023-04-01T01:53:58;98576.56;;;9.32;100.00
30897;BME280;64229;52.246;21.054;2023-04-01T01:56:26;98561.88;;;9.21;100.00
30897;BME280;64229;52.246;21.054;2023-04-01T01:58:58;98570.56;;;9.26;100.00
30897;BME280;64229;52.246;21.054;2023-04-01T02:01:31;98573.91;;;9.32;100.00
30897;BME280;64229;52.246;21.054;2023-04-01T02:03:59;98570.94;;;9.34;100.00
30897;BME280;64229;52.246;21.054;2023-04-01T02:06:28;98570.84;;;9.39;100.00
30897;BME280;64229;52.246;21.054;2023-04-01T02:09:04;98563.44;;;9.36;100.00
30897;BME280;64229;52.246;21.054;2023-04-01T02:11:36;98558.72;;;9.46;100.00
30897;BME280;64229;52.246;21.054;2023-04-01T02:14:17;98553.66;;;9.59;100.00
30897;BME280;64229;52.246;21.054;2023-04-01T02:16:49;98556.81;;;9.61;100.00
30897;BME280;64229;52.246;21.054;2023-04-01T02:19:17;98551.22;;;9.48;100.00
30897;BME280;64229;52.246;21.054;2023-04-01T02:21:50;98554.88;;;9.39;100.00
30897;BME280;64229;52.246;21.054;2023-04-01T02:24:19;98556.53;;;9.35;100.00
30897;BME280;64229;52.246;21.054;2023-04-01T02:26:49;98528.97;;;9.17;100.00
30897;BME280;64229;52.246;21.054;2023-04-01T02:29:16;98533.41;;;9.21;100.00
30897;BME280;64229;52.246;21.054;2023-04-01T02:31:43;98545.63;;;9.22;100.00
30897;BME280;64229;52.246;21.054;2023-04-01T02:34:09;98543.25;;;9.21;100.00
30897;BME280;64229;52.246;21.054;2023-04-01T02:36:35;98533.69;;;9.20;100.00
30897;BME280;64229;52.246;21.054;2023-04-01T02:39:02;98538.03;;;9.30;100.00
30897;BME280;64229;52.246;21.054;2023-04-01T02:41:29;98535.38;;;9.30;100.00
30897;BME280;64229;52.246;21.054;2023-04-01T02:43:55;98505.41;;;9.10;100.00
30897;BME280;64229;52.246;21.054;2023-04-01T02:46:22;98544.63;;;9.32;100.00
30897;BME280;64229;52.246;21.054;2023-04-01T02:48:48;98537.63;;;9.36;100.00
30897;BME280;64229;52.246;21.054;2023-04-01T02:51:13;98545.53;;;9.27;100.00
30897;BME280;64229;52.246;21.054;2023-04-01T02:53:38;98544.84;;;9.22;100.00
30897;BME280;64229;52.246;21.054;2023-04-01T02:56:04;98546.88;;;9.25;100.00
30897;BME280;64229;52.246;21.054;2023-04-01T02:58:30;98540.16;;;9.41;100.00
30897;BME280;64229;52.246;21.054;2023-04-01T03:00:55;98524.28;;;9.50;100.00
30897;BME280;64229;52.246;21.054;2023-04-01T03:03:21;98542.75;;;9.46;100.00
30897;BME280;64229;52.246;21.054;2023-04-01T03:05:46;98539.47;;;9.49;100.00
30897;BME280;64229;52.246;21.054;2023-04-01T03:08:11;98547.84;;;9.43;100.00
30897;BME280;64229;52.246;21.054;2023-04-01T03:10:37;98553.56;;;9.50;100.00
30897;BME280;64229;52.246;21.054;2023-04-01T03:13:03;98558.41;;;9.48;100.00
30897;BME280;64229;52.246;21.054;2023-04-01T03:15:28;98555.75;;;9.48;100.00
30897;BME280;64229;52.246;21.054;2023-04-01T03:17:53;98565.41;;;9.44;100.00
30897;BME280;64229;52.246;21.054;2023-04-01T03:20:19;98565.03;;;9.37;100.00
30897;BME280;64229;52.246;21.054;2023-04-01T03:22:45;98569.47;;;9.41;100.00
30897;BME280;64229;52.246;21.054;2023-04-01T03:25:11;98568.94;;;9.53;100.00
30897;BME280;64229;52.246;21.054;2023-04-01T03:27:37;98567.94;;;9.63;100.00
30897;BME280;64229;52.246;21.054;2023-04-01T03:30:06;98568.63;;;9.54;100.00
30897;BME280;64229;52.246;21.054;2023-04-01T03:32:32;98574.88;;;9.50;100.00
30897;BME280;64229;52.246;21.054;2023-04-01T03:34:57;98543.53;;;9.47;100.00
30897;BME280;64229;52.246;21.054;2023-04-01T03:37:23;98568.53;;;9.60;100.00
30897;BME280;64229;52.246;21.054;2023-04-01T03:39:49;98565.88;;;9.60;100.00
30897;BME280;64229;52.246;21.054;2023-04-01T03:42:15;98572.00;;;9.60;100.00
30897;BME280;64229;52.246;21.054;2023-04-01T03:44:40;98573.88;;;9.60;100.00
30897;BME280;64229;52.246;21.054;2023-04-01T03:47:06;98569.44;;;9.55;100.00
30897;BME280;64229;52.246;21.054;2023-04-01T03:49:31;98578.31;;;9.50;100.00
30897;BME280;64229;52.246;21.054;2023-04-01T03:51:58;98579.50;;;9.44;100.00
30897;BME280;64229;52.246;21.054;2023-04-01T03:54:23;98587.31;;;9.41;100.00
30897;BME280;64229;52.246;21.054;2023-04-01T03:56:49;98587.69;;;9.34;100.00
30897;BME280;64229;52.246;21.054;2023-04-01T03:59:15;98589.97;;;9.41;100.00
30897;BME280;64229;52.246;21.054;2023-04-01T04:01:40;98593.31;;;9.33;100.00
30897;BME280;64229;52.246;21.054;2023-04-01T04:04:06;98582.09;;;9.22;100.00
30897;BME280;64229;52.246;21.054;2023-04-01T04:06:32;98595.31;;;9.27;100.00
30897;BME280;64229;52.246;21.054;2023-04-01T04:08:58;98597.69;;;9.28;100.00
30897;BME280;64229;52.246;21.054;2023-04-01T04:11:24;98601.13;;;9.29;100.00
30897;BME280;64229;52.246;21.054;2023-04-01T04:13:49;98592.97;;;9.25;100.00
30897;BME280;64229;52.246;21.054;2023-04-01T04:16:16;98601.13;;;9.43;100.00
30897;BME280;64229;52.246;21.054;2023-04-01T04:18:41;98577.47;;;9.27;100.00
30897;BME280;64229;52.246;21.054;2023-04-01T04:21:12;98599.44;;;9.47;100.00
30897;BME280;64229;52.246;21.054;2023-04-01T04:23:37;98606.53;;;9.51;100.00
30897;BME280;64229;52.246;21.054;2023-04-01T04:26:08;98609.06;;;9.56;100.00
30897;BME280;64229;52.246;21.054;2023-04-01T04:28:34;98572.94;;;9.28;100.00
30897;BME280;64229;52.246;21.054;2023-04-01T04:31:00;98613.53;;;9.34;100.00
30897;BME280;64229;52.246;21.054;2023-04-01T04:33:26;98616.31;;;9.42;100.00
30897;BME280;64229;52.246;21.054;2023-04-01T04:35:54;98614.84;;;9.36;100.00
30897;BME280;64229;52.246;21.054;2023-04-01T04:38:20;98616.59;;;9.41;100.00
30897;BME280;64229;52.246;21.054;2023-04-01T04:40:46;98623.09;;;9.35;100.00
30897;BME280;64229;52.246;21.054;2023-04-01T04:43:13;98619.25;;;9.41;100.00
30897;BME280;64229;52.246;21.054;2023-04-01T04:45:38;98619.38;;;9.49;100.00
30897;BME280;64229;52.246;21.054;2023-04-01T04:48:04;98588.59;;;9.30;100.00
30897;BME280;64229;52.246;21.054;2023-04-01T04:50:30;98614.63;;;9.46;100.00
30897;BME280;64229;52.246;21.054;2023-04-01T04:52:55;98619.16;;;9.46;100.00
30897;BME280;64229;52.246;21.054;2023-04-01T04:55:21;98621.31;;;9.57;100.00
30897;BME280;64229;52.246;21.054;2023-04-01T04:57:46;98616.41;;;9.51;100.00
30897;BME280;64229;52.246;21.054;2023-04-01T05:00:12;98619.38;;;9.49;100.00
30897;BME280;64229;52.246;21.054;2023-04-01T05:02:38;98621.72;;;9.51;100.00
30897;BME280;64229;52.246;21.054;2023-04-01T05:05:04;98622.81;;;9.36;100.00
30897;BME280;64229;52.246;21.054;2023-04-01T05:07:29;98621.03;;;9.32;100.00
30897;BME280;64229;52.246;21.054;2023-04-01T05:09:55;98625.88;;;9.30;100.00
30897;BME280;64229;52.246;21.054;2023-04-01T05:12:20;98623.88;;;9.35;100.00
30897;BME280;64229;52.246;21.054;2023-04-01T05:14:46;98622.22;;;9.39;100.00
30897;BME280;64229;52.246;21.054;2023-04-01T05:17:12;98628.34;;;9.40;100.00
30897;BME280;64229;52.246;21.054;2023-04-01T05:19:38;98598.84;;;9.22;100.00
30897;BME280;64229;52.246;21.054;2023-04-01T05:22:05;98626.28;;;9.37;100.00
30897;BME280;64229;52.246;21.054;2023-04-01T05:24:30;98619.25;;;9.41;100.00
30897;BME280;64229;52.246;21.054;2023-04-01T05:26:56;98630.69;;;9.55;100.00
30897;BME280;64229;52.246;21.054;2023-04-01T05:29:23;98630.00;;;9.63;100.00
30897;BME280;64229;52.246;21.054;2023-04-01T05:31:48;98630.59;;;9.60;100.00
30897;BME280;64229;52.246;21.054;2023-04-01T05:34:14;98630.31;;;9.48;100.00
30897;BME280;64229;52.246;21.054;2023-04-01T05:36:40;98635.44;;;9.44;100.00
30897;BME280;64229;52.246;21.054;2023-04-01T05:39:07;98633.66;;;9.40;100.00
30897;BME280;64229;52.246;21.054;2023-04-01T05:41:37;98622.53;;;9.38;100.00
30897;BME280;64229;52.246;21.054;2023-04-01T05:44:04;98626.66;;;9.57;100.00
30897;BME280;64229;52.246;21.054;2023-04-01T05:46:30;98636.22;;;9.59;100.00
30897;BME280;64229;52.246;21.054;2023-04-01T05:48:56;98627.94;;;9.60;100.00
30897;BME280;64229;52.246;21.054;2023-04-01T05:51:22;98638.09;;;9.58;100.00
30897;BME280;64229;52.246;21.054;2023-04-01T05:53:47;98636.13;;;9.50;100.00
30897;BME280;64229;52.246;21.054;2023-04-01T05:56:13;98631.47;;;9.69;100.00
30897;BME280;64229;52.246;21.054;2023-04-01T05:58:38;98627.31;;;9.63;100.00
30897;BME280;64229;52.246;21.054;2023-04-01T06:01:06;98644.94;;;9.86;100.00
30897;BME280;64229;52.246;21.054;2023-04-01T06:03:32;98647.34;;;9.74;100.00
30897;BME280;64229;52.246;21.054;2023-04-01T06:05:58;98633.84;;;9.57;100.00
30897;BME280;64229;52.246;21.054;2023-04-01T06:08:24;98624.56;;;9.54;100.00
30897;BME280;64229;52.246;21.054;2023-04-01T06:27:12;98624.91;;;9.89;100.00
30897;BME280;64229;52.246;21.054;2023-04-01T06:30:03;98652.78;;;10.05;100.00
30897;BME280;64229;52.246;21.054;2023-04-01T06:46:45;98661.75;;;10.23;98.75
30897;BME280;64229;52.246;21.054;2023-04-01T06:49:22;98661.72;;;10.37;98.58
30897;BME280;64229;52.246;21.054;2023-04-01T06:54:38;98665.84;;;10.43;98.24
30897;BME280;64229;52.246;21.054;2023-04-01T06:57:20;98634.97;;;9.92;99.58
30897;BME280;64229;52.246;21.054;2023-04-01T06:59:48;98660.41;;;9.98;100.00
30897;BME280;64229;52.246;21.054;2023-04-01T07:04:56;98659.00;;;10.14;99.24
30897;BME280;64229;52.246;21.054;2023-04-01T07:07:35;98658.50;;;10.12;98.86
30897;BME280;64229;52.246;21.054;2023-04-01T07:16:12;98652.25;;;10.76;94.42
30897;BME280;64229;52.246;21.054;2023-04-01T07:21:41;98665.13;;;10.82;92.33
30897;BME280;64229;52.246;21.054;2023-04-01T07:24:21;98633.28;;;10.55;93.80
30897;BME280;64229;52.246;21.054;2023-04-01T07:26:54;98665.38;;;10.72;95.38
30897;BME280;64229;52.246;21.054;2023-04-01T07:29:20;98668.50;;;10.65;94.62
30897;BME280;64229;52.246;21.054;2023-04-01T07:32:14;98668.91;;;10.59;95.44
30897;BME280;64229;52.246;21.054;2023-04-01T07:47:54;98675.41;;;10.44;97.08
30897;BME280;64229;52.246;21.054;2023-04-01T07:53:30;98665.38;;;10.72;97.09
30897;BME280;64229;52.246;21.054;2023-04-01T07:56:06;98650.75;;;10.92;95.07
30897;BME280;64229;52.246;21.054;2023-04-01T08:20:51;98678.81;;;12.17;86.37
30897;BME280;64229;52.246;21.054;2023-04-01T08:23:22;98681.19;;;12.36;85.69
30897;BME280;64229;52.246;21.054;2023-04-01T08:28:44;98684.78;;;12.57;82.66
30897;BME280;64229;52.246;21.054;2023-04-01T08:33:55;98653.63;;;11.83;85.25
30897;BME280;64229;52.246;21.054;2023-04-01T08:36:34;98692.75;;;11.88;86.27
30897;BME280;64229;52.246;21.054;2023-04-01T08:39:09;98685.38;;;11.85;86.44
30897;BME280;64229;52.246;21.054;2023-04-01T08:53:12;98703.16;;;11.81;84.90
30897;BME280;64229;52.246;21.054;2023-04-01T08:56:01;98698.38;;;11.78;84.81
30897;BME280;64229;52.246;21.054;2023-04-01T09:04:25;98700.50;;;11.98;81.54
30897;BME280;64229;52.246;21.054;2023-04-01T09:23:47;98711.03;;;11.95;81.85
30897;BME280;64229;52.246;21.054;2023-04-01T09:26:44;98714.16;;;11.97;81.52
30897;BME280;64229;52.246;21.054;2023-04-01T09:48:51;98716.94;;;10.81;88.35
30897;BME280;64229;52.246;21.054;2023-04-01T09:54:10;98703.50;;;10.86;87.79
30897;BME280;64229;52.246;21.054;2023-04-01T10:19:23;98733.97;;;11.56;84.89
30897;BME280;64229;52.246;21.054;2023-04-01T10:22:02;98743.69;;;11.43;85.02
30897;BME280;64229;52.246;21.054;2023-04-01T10:44:17;98732.47;;;11.72;83.30
30897;BME280;64229;52.246;21.054;2023-04-01T10:47:09;98731.97;;;11.62;83.55
30897;BME280;64229;52.246;21.054;2023-04-01T11:04:39;98743.78;;;11.69;84.61
30897;BME280;64229;52.246;21.054;2023-04-01T11:32:09;98733.91;;;12.70;80.83
30897;BME280;64229;52.246;21.054;2023-04-01T11:40:05;98742.97;;;13.29;77.14
30897;BME280;64229;52.246;21.054;2023-04-01T11:45:12;98744.88;;;13.67;77.71
30897;BME280;64229;52.246;21.054;2023-04-01T12:10:33;98743.66;;;12.57;82.39
30897;BME280;64229;52.246;21.054;2023-04-01T12:13:11;98750.75;;;12.62;82.38
30897;BME280;64229;52.246;21.054;2023-04-01T12:18:22;98749.03;;;12.66;82.33
30897;BME280;64229;52.246;21.054;2023-04-01T12:20:50;98751.69;;;12.74;79.67
30897;BME280;64229;52.246;21.054;2023-04-01T12:26:12;98751.69;;;12.74;77.57
30897;BME280;64229;52.246;21.054;2023-04-01T12:39:48;98767.09;;;13.12;73.56
30897;BME280;64229;52.246;21.054;2023-04-01T12:45:04;98764.09;;;13.31;72.92
30897;BME280;64229;52.246;21.054;2023-04-01T12:56:09;98742.19;;;13.03;72.42
30897;BME280;64229;52.246;21.054;2023-04-01T13:07:45;98773.22;;;13.30;74.09
30897;BME280;64229;52.246;21.054;2023-04-01T13:15:57;98784.59;;;13.01;74.72
30897;BME280;64229;52.246;21.054;2023-04-01T13:18:58;98783.31;;;13.07;75.19
30897;BME280;64229;52.246;21.054;2023-04-01T13:29:35;98790.50;;;13.50;72.49
30897;BME280;64229;52.246;21.054;2023-04-01T13:40:23;98808.38;;;12.77;78.93
30897;BME280;64229;52.246;21.054;2023-04-01T13:42:57;98816.22;;;12.64;79.59
30897;BME280;64229;52.246;21.054;2023-04-01T13:45:53;98820.94;;;12.50;80.62
30897;BME280;64229;52.246;21.054;2023-04-01T13:59:43;98828.34;;;11.96;84.72
30897;BME280;64229;52.246;21.054;2023-04-01T14:04:38;98825.78;;;11.82;85.21
30897;BME280;64229;52.246;21.054;2023-04-01T14:13:20;98837.28;;;11.83;88.10
30897;BME280;64229;52.246;21.054;2023-04-01T14:27:41;98837.56;;;11.28;91.81
30897;BME280;64229;52.246;21.054;2023-04-01T14:35:24;98845.31;;;11.16;92.49
30897;BME280;64229;52.246;21.054;2023-04-01T14:40:27;98851.16;;;11.18;91.53
30897;BME280;64229;52.246;21.054;2023-04-01T14:45:42;98866.41;;;11.17;91.68
30897;BME280;64229;52.246;21.054;2023-04-01T14:48:25;98863.22;;;11.15;91.56
30897;BME280;64229;52.246;21.054;2023-04-01T14:50:55;98860.75;;;11.19;91.22
30897;BME280;64229;52.246;21.054;2023-04-01T14:53:28;98876.78;;;11.19;91.84
30897;BME280;64229;52.246;21.054;2023-04-01T14:55:59;98859.94;;;10.96;92.01
30897;BME280;64229;52.246;21.054;2023-04-01T14:58:41;98873.94;;;11.01;91.99
30897;BME280;64229;52.246;21.054;2023-04-01T15:17:32;98874.78;;;10.25;96.06
30897;BME280;64229;52.246;21.054;2023-04-01T15:20:25;98889.50;;;10.22;96.27
30897;BME280;64229;52.246;21.054;2023-04-01T15:31:06;98935.81;;;10.26;96.87
30897;BME280;64229;52.246;21.054;2023-04-01T15:33:56;98943.31;;;10.24;98.07
30897;BME280;64229;52.246;21.054;2023-04-01T15:36:45;98942.03;;;10.22;98.91
30897;BME280;64229;52.246;21.054;2023-04-01T15:39:17;98941.94;;;10.27;98.61
30897;BME280;64229;52.246;21.054;2023-04-01T15:42:21;98953.09;;;10.29;98.76
30897;BME280;64229;52.246;21.054;2023-04-01T15:50:21;98956.50;;;10.15;100.00
30897;BME280;64229;52.246;21.054;2023-04-01T15:53:08;98959.94;;;10.16;99.62
30897;BME280;64229;52.246;21.054;2023-04-01T16:01:11;98972.06;;;10.08;97.92
30897;BME280;64229;52.246;21.054;2023-04-01T16:03:50;98973.94;;;9.94;98.77
30897;BME280;64229;52.246;21.054;2023-04-01T16:09:49;98985.00;;;10.01;98.75
30897;BME280;64229;52.246;21.054;2023-04-01T16:15:28;98993.50;;;10.03;96.70
30897;BME280;64229;52.246;21.054;2023-04-01T16:18:17;98999.91;;;10.02;96.78
30897;BME280;64229;52.246;21.054;2023-04-01T16:21:14;99006.25;;;10.06;96.83
30897;BME280;64229;52.246;21.054;2023-04-01T16:23:50;99004.16;;;10.03;97.20
30897;BME280;64229;52.246;21.054;2023-04-01T16:26:27;99009.94;;;9.92;97.21
30897;BME280;64229;52.246;21.054;2023-04-01T16:34:47;99023.47;;;9.95;98.15
30897;BME280;64229;52.246;21.054;2023-04-01T16:45:45;99048.16;;;9.68;99.64
30897;BME280;64229;52.246;21.054;2023-04-01T16:48:21;99054.19;;;9.55;98.61
30897;BME280;64229;52.246;21.054;2023-04-01T16:50:58;99064.84;;;9.55;98.90
30897;BME280;64229;52.246;21.054;2023-04-01T16:56:17;99078.94;;;9.55;98.01
30897;BME280;64229;52.246;21.054;2023-04-01T17:01:30;99081.66;;;9.32;98.92
30897;BME280;64229;52.246;21.054;2023-04-01T17:04:41;99094.84;;;9.42;98.99
30897;BME280;64229;52.246;21.054;2023-04-01T17:15:04;99093.19;;;9.46;98.23
30897;BME280;64229;52.246;21.054;2023-04-01T17:17:43;99108.03;;;9.52;97.84
30897;BME280;64229;52.246;21.054;2023-04-01T17:25:46;99116.44;;;9.40;98.28
30897;BME280;64229;52.246;21.054;2023-04-01T17:28:41;99114.84;;;9.39;98.95
30897;BME280;64229;52.246;21.054;2023-04-01T17:42:44;99145.63;;;9.26;98.61
30897;BME280;64229;52.246;21.054;2023-04-01T17:56:17;99164.28;;;9.45;97.94
30897;BME280;64229;52.246;21.054;2023-04-01T17:58:59;99161.50;;;9.37;97.90
30897;BME280;64229;52.246;21.054;2023-04-01T18:10:22;99182.00;;;9.36;97.42
30897;BME280;64229;52.246;21.054;2023-04-01T18:20:54;99193.59;;;9.21;97.06
30897;BME280;64229;52.246;21.054;2023-04-01T18:26:24;99198.41;;;8.90;97.87
30897;BME280;64229;52.246;21.054;2023-04-01T18:28:57;99209.34;;;8.89;97.96
30897;BME280;64229;52.246;21.054;2023-04-01T18:31:33;99209.31;;;8.94;98.02
30897;BME280;64229;52.246;21.054;2023-04-01T18:34:02;99219.38;;;8.97;97.92
30897;BME280;64229;52.246;21.054;2023-04-01T18:36:49;99222.63;;;8.89;97.51
30897;BME280;64229;52.246;21.054;2023-04-01T18:45:00;99235.81;;;8.75;98.19
30897;BME280;64229;52.246;21.054;2023-04-01T18:47:38;99236.88;;;8.74;98.37
30897;BME280;64229;52.246;21.054;2023-04-01T18:50:14;99247.97;;;8.81;97.44
30897;BME280;64229;52.246;21.054;2023-04-01T18:52:44;99246.16;;;8.77;97.96
30897;BME280;64229;52.246;21.054;2023-04-01T18:58:07;99247.75;;;8.78;98.23
30897;BME280;64229;52.246;21.054;2023-04-01T19:00:41;99243.00;;;8.69;97.97
30897;BME280;64229;52.246;21.054;2023-04-01T19:05:49;99251.16;;;8.83;97.58
30897;BME280;64229;52.246;21.054;2023-04-01T19:19:34;99272.19;;;8.80;98.31
30897;BME280;64229;52.246;21.054;2023-04-01T19:25:21;99281.03;;;8.70;97.90
30897;BME280;64229;52.246;21.054;2023-04-01T19:28:49;99276.28;;;8.67;98.21
30897;BME280;64229;52.246;21.054;2023-04-01T19:36:06;99300.34;;;8.47;99.24
30897;BME280;64229;52.246;21.054;2023-04-01T19:38:41;99294.50;;;8.45;99.05
30897;BME280;64229;52.246;21.054;2023-04-01T19:44:06;99311.72;;;8.57;98.27
30897;BME280;64229;52.246;21.054;2023-04-01T19:46:41;99309.28;;;8.61;98.14
30897;BME280;64229;52.246;21.054;2023-04-01T19:49:38;99310.94;;;8.57;98.83
30897;BME280;64229;52.246;21.054;2023-04-01T20:08:31;99338.88;;;8.49;98.63
30897;BME280;64229;52.246;21.054;2023-04-01T20:14:01;99338.88;;;8.49;99.53
30897;BME280;64229;52.246;21.054;2023-04-01T20:17:07;99343.41;;;8.54;99.40
30897;BME280;64229;52.246;21.054;2023-04-01T20:25:26;99348.25;;;8.36;99.24
30897;BME280;64229;52.246;21.054;2023-04-01T20:36:34;99358.44;;;8.04;99.54
30897;BME280;64229;52.246;21.054;2023-04-01T20:50:22;99376.53;;;7.87;100.00
30897;BME280;64229;52.246;21.054;2023-04-01T20:58:27;99382.63;;;7.97;99.80
30897;BME280;64229;52.246;21.054;2023-04-01T21:01:13;99381.84;;;7.92;99.65
30897;BME280;64229;52.246;21.054;2023-04-01T21:07:05;99396.97;;;7.96;99.41
30897;BME280;64229;52.246;21.054;2023-04-01T21:12:53;99410.25;;;8.11;97.66
30897;BME280;64229;52.246;21.054;2023-04-01T21:15:42;99407.63;;;8.01;97.47
30897;BME280;64229;52.246;21.054;2023-04-01T21:21:16;99411.88;;;8.02;96.32
30897;BME280;64229;52.246;21.054;2023-04-01T21:32:32;99425.69;;;7.99;96.32
30897;BME280;64229;52.246;21.054;2023-04-01T21:40:09;99430.75;;;7.86;96.15
30897;BME280;64229;52.246;21.054;2023-04-01T22:00:20;99462.09;;;7.73;96.65
30897;BME280;64229;52.246;21.054;2023-04-01T22:03:13;99460.25;;;7.79;96.53
30897;BME280;64229;52.246;21.054;2023-04-01T22:10:55;99471.16;;;7.98;95.09
30897;BME280;64229;52.246;21.054;2023-04-01T22:13:39;99474.06;;;8.01;94.48
30897;BME280;64229;52.246;21.054;2023-04-01T22:16:19;99465.53;;;8.04;93.83
30897;BME280;64229;52.246;21.054;2023-04-01T22:24:35;99479.63;;;7.90;93.66
30897;BME280;64229;52.246;21.054;2023-04-01T22:27:11;99488.94;;;7.92;93.81
30897;BME280;64229;52.246;21.054;2023-04-01T22:29:51;99487.06;;;7.93;93.83
30897;BME280;64229;52.246;21.054;2023-04-01T22:32:34;99488.91;;;7.97;93.35
30897;BME280;64229;52.246;21.054;2023-04-01T22:38:17;99504.06;;;7.71;94.26
30897;BME280;64229;52.246;21.054;2023-04-01T22:43:38;99513.63;;;7.62;94.08
30897;BME280;64229;52.246;21.054;2023-04-01T22:54:24;99500.06;;;7.59;91.86
30897;BME280;64229;52.246;21.054;2023-04-01T22:57:03;99520.00;;;7.71;92.21
30897;BME280;64229;52.246;21.054;2023-04-01T23:02:06;99519.44;;;7.54;92.86
30897;BME280;64229;52.246;21.054;2023-04-01T23:04:38;99523.72;;;7.55;93.66
30897;BME280;64229;52.246;21.054;2023-04-01T23:09:54;99521.88;;;7.66;92.31
30897;BME280;64229;52.246;21.054;2023-04-01T23:12:22;99519.72;;;7.63;92.46
30897;BME280;64229;52.246;21.054;2023-04-01T23:14:52;99519.97;;;7.51;93.38
30897;BME280;64229;52.246;21.054;2023-04-01T23:17:46;99523.44;;;7.62;92.23
30897;BME280;64229;52.246;21.054;2023-04-01T23:22:57;99531.94;;;7.64;91.81
30897;BME280;64229;52.246;21.054;2023-04-01T23:28:06;99520.78;;;7.51;91.06
30897;BME280;64229;52.246;21.054;2023-04-01T23:33:10;99545.22;;;7.64;90.60
30897;BME280;64229;52.246;21.054;2023-04-01T23:38:12;99543.88;;;7.51;90.42
30897;BME280;64229;52.246;21.054;2023-04-01T23:40:37;99549.97;;;7.51;89.92
30897;BME280;64229;52.246;21.054;2023-04-01T23:43:13;99562.50;;;7.56;89.52
30897;BME280;64229;52.246;21.054;2023-04-01T23:45:41;99559.53;;;7.52;90.30
30897;BME280;64229;52.246;21.054;2023-04-01T23:48:11;99562.44;;;7.41;90.92
30897;BME280;64229;52.246;21.054;2023-04-01T23:50:39;99558.72;;;7.42;90.77
30897;BME280;64229;52.246;21.054;2023-04-01T23:53:21;99547.25;;;7.31;90.40
30897;BME280;64229;52.246;21.054;2023-04-01T23:55:49;99556.09;;;7.47;89.62
30897;BME280;64229;52.246;21.054;2023-04-01T23:58:40;99560.59;;;7.46;88.94
